sensor_id;sensor_type;location;lat;lon;timestamp;P1;durP1;ratioP1;P2;durP2;ratioP2
59189;SDS011;50749;51.636;4.948;2023-11-19T00:02:19;2.95;;;1.33;;
59189;SDS011;50749;51.636;4.948;2023-11-19T00:04:44;3.40;;;1.20;;
59189;SDS011;50749;51.636;4.948;2023-11-19T00:07:10;5.00;;;1.27;;
59189;SDS011;50749;51.636;4.948;2023-11-19T00:09:38;4.78;;;1.38;;
59189;SDS011;50749;51.636;4.948;2023-11-19T00:12:05;4.70;;;1.50;;
59189;SDS011;50749;51.636;4.948;2023-11-19T00:14:31;4.05;;;1.20;;
59189;SDS011;50749;51.636;4.948;2023-11-19T00:16:57;2.95;;;1.35;;
59189;SDS011;50749;51.636;4.948;2023-11-19T00:19:23;3.45;;;1.30;;
59189;SDS011;50749;51.636;4.948;2023-11-19T00:21:49;4.95;;;1.40;;
59189;SDS011;50749;51.636;4.948;2023-11-19T00:24:17;4.80;;;1.42;;
59189;SDS011;50749;51.636;4.948;2023-11-19T00:26:43;2.92;;;1.30;;
59189;SDS011;50749;51.636;4.948;2023-11-19T00:29:09;5.18;;;1.60;;
59189;SDS011;50749;51.636;4.948;2023-11-19T00:31:35;3.42;;;1.40;;
59189;SDS011;50749;51.636;4.948;2023-11-19T00:34:02;3.05;;;1.33;;
59189;SDS011;50749;51.636;4.948;2023-11-19T00:36:28;5.72;;;1.13;;
59189;SDS011;50749;51.636;4.948;2023-11-19T00:38:54;5.05;;;1.63;;
59189;SDS011;50749;51.636;4.948;2023-11-19T00:41:20;4.13;;;1.10;;
59189;SDS011;50749;51.636;4.948;2023-11-19T00:43:46;5.80;;;1.08;;
59189;SDS011;50749;51.636;4.948;2023-11-19T00:46:11;5.65;;;1.13;;
59189;SDS011;50749;51.636;4.948;2023-11-19T00:48:39;6.88;;;1.92;;
59189;SDS011;50749;51.636;4.948;2023-11-19T00:51:05;4.20;;;1.10;;
59189;SDS011;50749;51.636;4.948;2023-11-19T00:53:32;3.78;;;1.20;;
59189;SDS011;50749;51.636;4.948;2023-11-19T00:55:59;10.48;;;1.55;;
59189;SDS011;50749;51.636;4.948;2023-11-19T00:58:25;4.88;;;1.35;;
59189;SDS011;50749;51.636;4.948;2023-11-19T01:00:51;5.18;;;1.33;;
59189;SDS011;50749;51.636;4.948;2023-11-19T01:03:17;4.40;;;1.70;;
59189;SDS011;50749;51.636;4.948;2023-11-19T01:05:42;6.82;;;1.55;;
59189;SDS011;50749;51.636;4.948;2023-11-19T01:08:10;5.13;;;1.17;;
59189;SDS011;50749;51.636;4.948;2023-11-19T01:10:38;6.13;;;1.20;;
59189;SDS011;50749;51.636;4.948;2023-11-19T01:13:04;5.10;;;1.45;;
59189;SDS011;50749;51.636;4.948;2023-11-19T01:15:31;9.18;;;1.88;;
59189;SDS011;50749;51.636;4.948;2023-11-19T01:17:58;6.85;;;1.20;;
59189;SDS011;50749;51.636;4.948;2023-11-19T01:20:23;4.43;;;1.08;;
59189;SDS011;50749;51.636;4.948;2023-11-19T01:22:50;5.63;;;1.90;;
59189;SDS011;50749;51.636;4.948;2023-11-19T01:25:16;6.88;;;1.58;;
59189;SDS011;50749;51.636;4.948;2023-11-19T01:27:42;4.93;;;1.65;;
59189;SDS011;50749;51.636;4.948;2023-11-19T01:30:08;6.10;;;1.55;;
59189;SDS011;50749;51.636;4.948;2023-11-19T01:32:40;9.15;;;1.83;;
59189;SDS011;50749;51.636;4.948;2023-11-19T01:35:06;6.95;;;1.55;;
59189;SDS011;50749;51.636;4.948;2023-11-19T01:37:33;10.40;;;2.05;;
59189;SDS011;50749;51.636;4.948;2023-11-19T01:40:00;8.13;;;1.58;;
59189;SDS011;50749;51.636;4.948;2023-11-19T01:42:28;10.68;;;1.85;;
59189;SDS011;50749;51.636;4.948;2023-11-19T01:45:00;8.30;;;1.80;;
59189;SDS011;50749;51.636;4.948;2023-11-19T01:47:27;4.57;;;1.42;;
59189;SDS011;50749;51.636;4.948;2023-11-19T01:49:55;10.30;;;1.85;;
59189;SDS011;50749;51.636;4.948;2023-11-19T01:52:22;6.57;;;2.13;;
59189;SDS011;50749;51.636;4.948;2023-11-19T01:54:48;5.30;;;1.63;;
59189;SDS011;50749;51.636;4.948;2023-11-19T01:57:15;11.90;;;2.35;;
59189;SDS011;50749;51.636;4.948;2023-11-19T01:59:42;8.73;;;1.40;;
59189;SDS011;50749;51.636;4.948;2023-11-19T02:02:09;7.95;;;2.38;;
59189;SDS011;50749;51.636;4.948;2023-11-19T02:04:35;10.45;;;2.00;;
59189;SDS011;50749;51.636;4.948;2023-11-19T02:07:01;10.35;;;1.80;;
59189;SDS011;50749;51.636;4.948;2023-11-19T02:09:26;11.93;;;1.98;;
59189;SDS011;50749;51.636;4.948;2023-11-19T02:11:53;11.75;;;2.10;;
59189;SDS011;50749;51.636;4.948;2023-11-19T02:14:21;8.63;;;2.35;;
59189;SDS011;50749;51.636;4.948;2023-11-19T02:16:51;11.07;;;2.25;;
59189;SDS011;50749;51.636;4.948;2023-11-19T02:19:20;7.88;;;2.05;;
59189;SDS011;50749;51.636;4.948;2023-11-19T02:21:45;9.55;;;2.00;;
59189;SDS011;50749;51.636;4.948;2023-11-19T02:24:11;10.68;;;2.40;;
59189;SDS011;50749;51.636;4.948;2023-11-19T02:26:47;11.38;;;2.45;;
59189;SDS011;50749;51.636;4.948;2023-11-19T02:29:30;10.90;;;2.10;;
59189;SDS011;50749;51.636;4.948;2023-11-19T02:31:57;11.93;;;2.67;;
59189;SDS011;50749;51.636;4.948;2023-11-19T02:34:22;9.70;;;1.63;;
59189;SDS011;50749;51.636;4.948;2023-11-19T02:36:48;10.60;;;2.78;;
59189;SDS011;50749;51.636;4.948;2023-11-19T02:39:15;9.75;;;2.00;;
59189;SDS011;50749;51.636;4.948;2023-11-19T02:41:47;10.93;;;1.98;;
59189;SDS011;50749;51.636;4.948;2023-11-19T02:44:16;11.52;;;2.85;;
59189;SDS011;50749;51.636;4.948;2023-11-19T02:46:42;13.68;;;2.70;;
59189;SDS011;50749;51.636;4.948;2023-11-19T02:49:08;9.55;;;2.85;;
59189;SDS011;50749;51.636;4.948;2023-11-19T02:51:33;15.65;;;2.83;;
59189;SDS011;50749;51.636;4.948;2023-11-19T02:54:00;13.52;;;3.35;;
59189;SDS011;50749;51.636;4.948;2023-11-19T02:56:26;13.82;;;2.50;;
59189;SDS011;50749;51.636;4.948;2023-11-19T02:58:52;16.23;;;2.72;;
59189;SDS011;50749;51.636;4.948;2023-11-19T03:01:22;8.80;;;2.00;;
59189;SDS011;50749;51.636;4.948;2023-11-19T03:03:59;11.05;;;3.13;;
59189;SDS011;50749;51.636;4.948;2023-11-19T03:06:27;14.68;;;3.40;;
59189;SDS011;50749;51.636;4.948;2023-11-19T03:08:54;11.77;;;2.90;;
59189;SDS011;50749;51.636;4.948;2023-11-19T03:11:21;14.10;;;3.00;;
59189;SDS011;50749;51.636;4.948;2023-11-19T03:13:46;15.55;;;3.10;;
59189;SDS011;50749;51.636;4.948;2023-11-19T03:16:12;10.45;;;2.20;;
59189;SDS011;50749;51.636;4.948;2023-11-19T03:18:38;13.77;;;3.22;;
59189;SDS011;50749;51.636;4.948;2023-11-19T03:21:08;13.57;;;2.88;;
59189;SDS011;50749;51.636;4.948;2023-11-19T03:23:34;11.85;;;2.15;;
59189;SDS011;50749;51.636;4.948;2023-11-19T03:26:00;9.90;;;2.40;;
59189;SDS011;50749;51.636;4.948;2023-11-19T03:28:29;11.68;;;2.33;;
59189;SDS011;50749;51.636;4.948;2023-11-19T03:30:56;16.55;;;2.85;;
59189;SDS011;50749;51.636;4.948;2023-11-19T03:33:21;15.23;;;2.75;;
59189;SDS011;50749;51.636;4.948;2023-11-19T03:35:47;15.05;;;3.10;;
59189;SDS011;50749;51.636;4.948;2023-11-19T03:38:13;16.88;;;3.03;;
59189;SDS011;50749;51.636;4.948;2023-11-19T03:40:40;14.32;;;2.85;;
59189;SDS011;50749;51.636;4.948;2023-11-19T03:43:06;15.57;;;3.35;;
59189;SDS011;50749;51.636;4.948;2023-11-19T03:45:32;17.17;;;3.28;;
59189;SDS011;50749;51.636;4.948;2023-11-19T03:47:57;15.98;;;3.60;;
59189;SDS011;50749;51.636;4.948;2023-11-19T03:50:23;13.52;;;3.15;;
59189;SDS011;50749;51.636;4.948;2023-11-19T03:52:49;17.75;;;3.90;;
59189;SDS011;50749;51.636;4.948;2023-11-19T03:55:15;13.88;;;2.92;;
59189;SDS011;50749;51.636;4.948;2023-11-19T03:57:40;13.15;;;2.90;;
59189;SDS011;50749;51.636;4.948;2023-11-19T04:00:06;16.55;;;3.08;;
59189;SDS011;50749;51.636;4.948;2023-11-19T04:02:35;15.48;;;2.70;;
59189;SDS011;50749;51.636;4.948;2023-11-19T04:05:02;17.85;;;2.80;;
59189;SDS011;50749;51.636;4.948;2023-11-19T04:07:29;15.43;;;3.42;;
59189;SDS011;50749;51.636;4.948;2023-11-19T04:09:54;12.55;;;2.50;;
59189;SDS011;50749;51.636;4.948;2023-11-19T04:12:21;14.40;;;3.10;;
59189;SDS011;50749;51.636;4.948;2023-11-19T04:14:47;10.65;;;2.72;;
59189;SDS011;50749;51.636;4.948;2023-11-19T04:17:13;16.48;;;2.65;;
59189;SDS011;50749;51.636;4.948;2023-11-19T04:19:39;16.73;;;2.75;;
59189;SDS011;50749;51.636;4.948;2023-11-19T04:22:07;13.15;;;2.60;;
59189;SDS011;50749;51.636;4.948;2023-11-19T04:24:34;13.30;;;2.83;;
59189;SDS011;50749;51.636;4.948;2023-11-19T04:27:00;16.23;;;3.17;;
59189;SDS011;50749;51.636;4.948;2023-11-19T04:29:26;17.73;;;3.50;;
59189;SDS011;50749;51.636;4.948;2023-11-19T04:31:52;12.15;;;2.78;;
59189;SDS011;50749;51.636;4.948;2023-11-19T04:34:18;13.80;;;2.38;;
59189;SDS011;50749;51.636;4.948;2023-11-19T04:36:43;18.77;;;3.78;;
59189;SDS011;50749;51.636;4.948;2023-11-19T04:39:09;15.93;;;3.30;;
59189;SDS011;50749;51.636;4.948;2023-11-19T04:41:49;25.70;;;3.17;;
59189;SDS011;50749;51.636;4.948;2023-11-19T04:44:15;13.55;;;2.47;;
59189;SDS011;50749;51.636;4.948;2023-11-19T04:46:41;16.10;;;2.53;;
59189;SDS011;50749;51.636;4.948;2023-11-19T04:49:10;16.38;;;4.13;;
59189;SDS011;50749;51.636;4.948;2023-11-19T04:51:43;17.98;;;3.22;;
59189;SDS011;50749;51.636;4.948;2023-11-19T04:54:12;14.63;;;2.80;;
59189;SDS011;50749;51.636;4.948;2023-11-19T04:56:38;18.85;;;4.45;;
59189;SDS011;50749;51.636;4.948;2023-11-19T04:59:05;16.20;;;3.30;;
59189;SDS011;50749;51.636;4.948;2023-11-19T05:01:34;15.73;;;2.30;;
59189;SDS011;50749;51.636;4.948;2023-11-19T05:04:01;15.93;;;3.00;;
59189;SDS011;50749;51.636;4.948;2023-11-19T05:06:27;18.38;;;3.42;;
59189;SDS011;50749;51.636;4.948;2023-11-19T05:08:57;18.58;;;2.55;;
59189;SDS011;50749;51.636;4.948;2023-11-19T05:11:26;23.63;;;3.95;;
59189;SDS011;50749;51.636;4.948;2023-11-19T05:13:54;15.82;;;2.85;;
59189;SDS011;50749;51.636;4.948;2023-11-19T05:16:19;18.17;;;2.85;;
59189;SDS011;50749;51.636;4.948;2023-11-19T05:18:46;17.38;;;3.00;;
59189;SDS011;50749;51.636;4.948;2023-11-19T05:21:12;10.77;;;2.40;;
59189;SDS011;50749;51.636;4.948;2023-11-19T05:23:38;12.95;;;3.10;;
59189;SDS011;50749;51.636;4.948;2023-11-19T05:26:04;15.45;;;3.20;;
59189;SDS011;50749;51.636;4.948;2023-11-19T05:28:30;15.15;;;3.00;;
59189;SDS011;50749;51.636;4.948;2023-11-19T05:30:56;19.02;;;3.58;;
59189;SDS011;50749;51.636;4.948;2023-11-19T05:33:22;15.18;;;3.35;;
59189;SDS011;50749;51.636;4.948;2023-11-19T05:35:48;13.45;;;3.92;;
59189;SDS011;50749;51.636;4.948;2023-11-19T05:38:14;18.55;;;3.80;;
59189;SDS011;50749;51.636;4.948;2023-11-19T05:40:40;20.92;;;4.50;;
59189;SDS011;50749;51.636;4.948;2023-11-19T05:43:06;15.30;;;3.17;;
59189;SDS011;50749;51.636;4.948;2023-11-19T05:45:32;15.63;;;3.47;;
59189;SDS011;50749;51.636;4.948;2023-11-19T05:47:58;12.23;;;3.33;;
59189;SDS011;50749;51.636;4.948;2023-11-19T05:50:23;21.05;;;3.60;;
59189;SDS011;50749;51.636;4.948;2023-11-19T05:52:50;19.05;;;3.47;;
59189;SDS011;50749;51.636;4.948;2023-11-19T05:55:15;16.55;;;3.17;;
59189;SDS011;50749;51.636;4.948;2023-11-19T05:57:41;14.82;;;3.28;;
59189;SDS011;50749;51.636;4.948;2023-11-19T06:00:07;12.05;;;2.80;;
59189;SDS011;50749;51.636;4.948;2023-11-19T06:02:35;15.50;;;3.40;;
59189;SDS011;50749;51.636;4.948;2023-11-19T06:05:02;11.77;;;2.38;;
59189;SDS011;50749;51.636;4.948;2023-11-19T06:07:31;16.45;;;3.42;;
59189;SDS011;50749;51.636;4.948;2023-11-19T06:09:57;19.70;;;2.90;;
59189;SDS011;50749;51.636;4.948;2023-11-19T06:12:22;18.17;;;2.90;;
59189;SDS011;50749;51.636;4.948;2023-11-19T06:14:48;13.90;;;2.63;;
59189;SDS011;50749;51.636;4.948;2023-11-19T06:17:14;17.48;;;3.20;;
59189;SDS011;50749;51.636;4.948;2023-11-19T06:19:39;17.63;;;4.90;;
59189;SDS011;50749;51.636;4.948;2023-11-19T06:22:05;15.80;;;2.65;;
59189;SDS011;50749;51.636;4.948;2023-11-19T06:24:31;11.23;;;2.25;;
59189;SDS011;50749;51.636;4.948;2023-11-19T06:26:57;9.05;;;2.55;;
59189;SDS011;50749;51.636;4.948;2023-11-19T06:29:23;13.35;;;2.70;;
59189;SDS011;50749;51.636;4.948;2023-11-19T06:31:50;12.40;;;2.08;;
59189;SDS011;50749;51.636;4.948;2023-11-19T06:34:16;15.98;;;2.70;;
59189;SDS011;50749;51.636;4.948;2023-11-19T06:36:42;9.07;;;2.58;;
59189;SDS011;50749;51.636;4.948;2023-11-19T06:39:09;15.02;;;3.03;;
59189;SDS011;50749;51.636;4.948;2023-11-19T06:41:36;10.30;;;2.72;;
59189;SDS011;50749;51.636;4.948;2023-11-19T06:44:05;11.48;;;2.50;;
59189;SDS011;50749;51.636;4.948;2023-11-19T06:46:31;12.18;;;2.80;;
59189;SDS011;50749;51.636;4.948;2023-11-19T06:48:56;6.78;;;1.83;;
59189;SDS011;50749;51.636;4.948;2023-11-19T06:51:23;11.57;;;2.22;;
59189;SDS011;50749;51.636;4.948;2023-11-19T06:53:49;9.70;;;2.72;;
59189;SDS011;50749;51.636;4.948;2023-11-19T06:58:45;11.95;;;2.65;;
59189;SDS011;50749;51.636;4.948;2023-11-19T07:01:11;13.02;;;2.75;;
59189;SDS011;50749;51.636;4.948;2023-11-19T07:03:37;9.63;;;2.03;;
59189;SDS011;50749;51.636;4.948;2023-11-19T07:06:03;15.98;;;3.17;;
59189;SDS011;50749;51.636;4.948;2023-11-19T07:08:29;15.23;;;2.72;;
59189;SDS011;50749;51.636;4.948;2023-11-19T07:10:54;11.52;;;2.45;;
59189;SDS011;50749;51.636;4.948;2023-11-19T07:13:20;15.70;;;2.72;;
59189;SDS011;50749;51.636;4.948;2023-11-19T07:15:46;15.70;;;2.90;;
59189;SDS011;50749;51.636;4.948;2023-11-19T07:18:12;9.90;;;2.33;;
59189;SDS011;50749;51.636;4.948;2023-11-19T07:20:38;15.13;;;2.63;;
59189;SDS011;50749;51.636;4.948;2023-11-19T07:23:05;8.50;;;2.20;;
59189;SDS011;50749;51.636;4.948;2023-11-19T07:25:31;9.15;;;2.63;;
59189;SDS011;50749;51.636;4.948;2023-11-19T07:27:57;13.75;;;3.15;;
59189;SDS011;50749;51.636;4.948;2023-11-19T07:30:23;15.60;;;3.08;;
59189;SDS011;50749;51.636;4.948;2023-11-19T07:32:48;13.65;;;2.30;;
59189;SDS011;50749;51.636;4.948;2023-11-19T07:35:14;14.07;;;2.25;;
59189;SDS011;50749;51.636;4.948;2023-11-19T07:37:41;13.57;;;2.83;;
59189;SDS011;50749;51.636;4.948;2023-11-19T07:40:08;13.85;;;3.08;;
59189;SDS011;50749;51.636;4.948;2023-11-19T07:42:33;15.52;;;2.97;;
59189;SDS011;50749;51.636;4.948;2023-11-19T07:44:59;20.27;;;2.60;;
59189;SDS011;50749;51.636;4.948;2023-11-19T07:47:25;11.70;;;2.45;;
59189;SDS011;50749;51.636;4.948;2023-11-19T07:49:51;13.30;;;3.15;;
59189;SDS011;50749;51.636;4.948;2023-11-19T07:52:17;15.82;;;3.03;;
59189;SDS011;50749;51.636;4.948;2023-11-19T07:54:42;16.25;;;3.00;;
59189;SDS011;50749;51.636;4.948;2023-11-19T07:57:08;18.35;;;2.92;;
59189;SDS011;50749;51.636;4.948;2023-11-19T07:59:34;13.18;;;2.45;;
59189;SDS011;50749;51.636;4.948;2023-11-19T08:02:00;10.80;;;2.22;;
59189;SDS011;50749;51.636;4.948;2023-11-19T08:04:26;10.38;;;2.90;;
59189;SDS011;50749;51.636;4.948;2023-11-19T08:06:51;12.95;;;2.50;;
59189;SDS011;50749;51.636;4.948;2023-11-19T08:09:17;15.25;;;2.85;;
59189;SDS011;50749;51.636;4.948;2023-11-19T08:11:43;10.45;;;2.47;;
59189;SDS011;50749;51.636;4.948;2023-11-19T08:14:09;10.70;;;3.20;;
59189;SDS011;50749;51.636;4.948;2023-11-19T08:16:35;13.35;;;2.88;;
59189;SDS011;50749;51.636;4.948;2023-11-19T08:19:01;13.05;;;2.50;;
59189;SDS011;50749;51.636;4.948;2023-11-19T08:21:28;14.77;;;2.45;;
59189;SDS011;50749;51.636;4.948;2023-11-19T08:23:54;13.05;;;2.80;;
59189;SDS011;50749;51.636;4.948;2023-11-19T08:26:20;10.57;;;2.30;;
59189;SDS011;50749;51.636;4.948;2023-11-19T08:28:46;7.97;;;2.40;;
59189;SDS011;50749;51.636;4.948;2023-11-19T08:31:11;10.75;;;2.42;;
59189;SDS011;50749;51.636;4.948;2023-11-19T08:33:37;9.05;;;2.53;;
59189;SDS011;50749;51.636;4.948;2023-11-19T08:36:03;13.32;;;2.75;;
59189;SDS011;50749;51.636;4.948;2023-11-19T08:38:30;17.25;;;2.78;;
59189;SDS011;50749;51.636;4.948;2023-11-19T08:40:56;12.38;;;2.38;;
59189;SDS011;50749;51.636;4.948;2023-11-19T08:43:25;11.38;;;2.63;;
59189;SDS011;50749;51.636;4.948;2023-11-19T08:45:51;12.27;;;2.83;;
59189;SDS011;50749;51.636;4.948;2023-11-19T08:48:17;10.88;;;2.70;;
59189;SDS011;50749;51.636;4.948;2023-11-19T08:50:42;15.13;;;2.75;;
59189;SDS011;50749;51.636;4.948;2023-11-19T08:53:08;9.80;;;2.70;;
59189;SDS011;50749;51.636;4.948;2023-11-19T08:55:34;12.15;;;2.78;;
59189;SDS011;50749;51.636;4.948;2023-11-19T08:58:00;15.65;;;3.05;;
59189;SDS011;50749;51.636;4.948;2023-11-19T09:00:26;12.60;;;2.60;;
59189;SDS011;50749;51.636;4.948;2023-11-19T09:02:52;12.25;;;2.42;;
59189;SDS011;50749;51.636;4.948;2023-11-19T09:05:18;9.55;;;1.92;;
59189;SDS011;50749;51.636;4.948;2023-11-19T09:07:44;14.20;;;2.30;;
59189;SDS011;50749;51.636;4.948;2023-11-19T09:10:09;11.95;;;2.63;;
59189;SDS011;50749;51.636;4.948;2023-11-19T09:12:37;11.30;;;2.42;;
59189;SDS011;50749;51.636;4.948;2023-11-19T09:15:03;16.08;;;2.63;;
59189;SDS011;50749;51.636;4.948;2023-11-19T09:17:29;11.20;;;2.75;;
59189;SDS011;50749;51.636;4.948;2023-11-19T09:19:54;12.18;;;2.10;;
59189;SDS011;50749;51.636;4.948;2023-11-19T09:22:20;11.07;;;2.28;;
59189;SDS011;50749;51.636;4.948;2023-11-19T09:24:46;6.90;;;2.13;;
59189;SDS011;50749;51.636;4.948;2023-11-19T09:27:13;14.70;;;2.92;;
59189;SDS011;50749;51.636;4.948;2023-11-19T09:29:39;14.45;;;2.88;;
59189;SDS011;50749;51.636;4.948;2023-11-19T09:32:05;11.70;;;2.63;;
59189;SDS011;50749;51.636;4.948;2023-11-19T09:34:31;12.73;;;2.30;;
59189;SDS011;50749;51.636;4.948;2023-11-19T09:36:57;9.07;;;2.53;;
59189;SDS011;50749;51.636;4.948;2023-11-19T09:39:23;14.63;;;2.90;;
59189;SDS011;50749;51.636;4.948;2023-11-19T09:41:51;14.48;;;2.83;;
59189;SDS011;50749;51.636;4.948;2023-11-19T09:44:17;13.38;;;2.42;;
59189;SDS011;50749;51.636;4.948;2023-11-19T09:46:44;11.38;;;2.40;;
59189;SDS011;50749;51.636;4.948;2023-11-19T09:49:11;12.07;;;2.10;;
59189;SDS011;50749;51.636;4.948;2023-11-19T09:51:38;12.70;;;2.63;;
59189;SDS011;50749;51.636;4.948;2023-11-19T09:54:04;12.48;;;2.92;;
59189;SDS011;50749;51.636;4.948;2023-11-19T09:56:30;15.60;;;2.97;;
59189;SDS011;50749;51.636;4.948;2023-11-19T09:58:58;14.70;;;2.88;;
59189;SDS011;50749;51.636;4.948;2023-11-19T10:01:24;13.27;;;3.15;;
59189;SDS011;50749;51.636;4.948;2023-11-19T10:03:50;21.50;;;3.50;;
59189;SDS011;50749;51.636;4.948;2023-11-19T10:06:20;15.07;;;3.28;;
59189;SDS011;50749;51.636;4.948;2023-11-19T10:08:46;13.98;;;2.80;;
59189;SDS011;50749;51.636;4.948;2023-11-19T10:11:13;8.98;;;2.05;;
59189;SDS011;50749;51.636;4.948;2023-11-19T10:13:38;14.77;;;2.78;;
59189;SDS011;50749;51.636;4.948;2023-11-19T10:16:13;12.50;;;2.63;;
59189;SDS011;50749;51.636;4.948;2023-11-19T10:21:14;10.32;;;2.10;;
59189;SDS011;50749;51.636;4.948;2023-11-19T10:23:52;22.45;;;2.83;;
59189;SDS011;50749;51.636;4.948;2023-11-19T10:26:19;13.40;;;3.05;;
59189;SDS011;50749;51.636;4.948;2023-11-19T10:28:46;13.50;;;2.40;;
59189;SDS011;50749;51.636;4.948;2023-11-19T10:31:13;12.45;;;2.80;;
59189;SDS011;50749;51.636;4.948;2023-11-19T10:33:39;11.38;;;2.63;;
59189;SDS011;50749;51.636;4.948;2023-11-19T10:36:06;17.10;;;2.85;;
59189;SDS011;50749;51.636;4.948;2023-11-19T10:38:32;17.15;;;3.13;;
59189;SDS011;50749;51.636;4.948;2023-11-19T10:40:59;20.15;;;3.92;;
59189;SDS011;50749;51.636;4.948;2023-11-19T10:43:24;15.35;;;2.70;;
59189;SDS011;50749;51.636;4.948;2023-11-19T10:45:51;15.23;;;3.22;;
59189;SDS011;50749;51.636;4.948;2023-11-19T10:48:17;14.77;;;2.95;;
59189;SDS011;50749;51.636;4.948;2023-11-19T10:50:44;19.85;;;3.42;;
59189;SDS011;50749;51.636;4.948;2023-11-19T10:53:11;14.27;;;3.15;;
59189;SDS011;50749;51.636;4.948;2023-11-19T10:55:41;16.27;;;2.65;;
59189;SDS011;50749;51.636;4.948;2023-11-19T10:58:12;16.83;;;3.40;;
59189;SDS011;50749;51.636;4.948;2023-11-19T11:00:46;13.57;;;3.28;;
59189;SDS011;50749;51.636;4.948;2023-11-19T11:03:24;13.05;;;2.95;;
59189;SDS011;50749;51.636;4.948;2023-11-19T11:05:53;14.55;;;3.10;;
59189;SDS011;50749;51.636;4.948;2023-11-19T11:08:19;14.02;;;2.75;;
59189;SDS011;50749;51.636;4.948;2023-11-19T11:10:52;9.75;;;2.83;;
59189;SDS011;50749;51.636;4.948;2023-11-19T11:13:19;13.38;;;2.50;;
59189;SDS011;50749;51.636;4.948;2023-11-19T11:15:45;12.07;;;2.63;;
59189;SDS011;50749;51.636;4.948;2023-11-19T11:18:12;14.35;;;2.65;;
59189;SDS011;50749;51.636;4.948;2023-11-19T11:20:38;12.65;;;2.58;;
59189;SDS011;50749;51.636;4.948;2023-11-19T11:29:37;9.23;;;2.22;;
59189;SDS011;50749;51.636;4.948;2023-11-19T11:39:57;7.25;;;2.20;;
59189;SDS011;50749;51.636;4.948;2023-11-19T11:55:34;12.02;;;2.75;;
59189;SDS011;50749;51.636;4.948;2023-11-19T11:58:30;11.05;;;1.95;;
59189;SDS011;50749;51.636;4.948;2023-11-19T12:00:57;10.00;;;1.95;;
59189;SDS011;50749;51.636;4.948;2023-11-19T12:03:27;11.32;;;2.30;;
59189;SDS011;50749;51.636;4.948;2023-11-19T12:05:54;8.57;;;1.90;;
59189;SDS011;50749;51.636;4.948;2023-11-19T12:08:25;10.93;;;2.70;;
59189;SDS011;50749;51.636;4.948;2023-11-19T12:10:53;15.93;;;2.47;;
59189;SDS011;50749;51.636;4.948;2023-11-19T12:13:23;11.30;;;2.40;;
59189;SDS011;50749;51.636;4.948;2023-11-19T12:18:28;10.50;;;2.40;;
59189;SDS011;50749;51.636;4.948;2023-11-19T12:20:56;11.13;;;2.45;;
59189;SDS011;50749;51.636;4.948;2023-11-19T12:23:28;11.68;;;2.50;;
59189;SDS011;50749;51.636;4.948;2023-11-19T12:25:54;9.65;;;2.33;;
59189;SDS011;50749;51.636;4.948;2023-11-19T12:28:21;10.95;;;2.47;;
59189;SDS011;50749;51.636;4.948;2023-11-19T12:30:49;11.13;;;2.17;;
59189;SDS011;50749;51.636;4.948;2023-11-19T12:33:15;17.92;;;3.00;;
59189;SDS011;50749;51.636;4.948;2023-11-19T12:35:44;13.18;;;2.60;;
59189;SDS011;50749;51.636;4.948;2023-11-19T12:38:21;9.98;;;1.75;;
59189;SDS011;50749;51.636;4.948;2023-11-19T12:40:47;15.05;;;2.67;;
59189;SDS011;50749;51.636;4.948;2023-11-19T12:43:28;11.38;;;3.88;;
59189;SDS011;50749;51.636;4.948;2023-11-19T12:45:54;11.00;;;2.90;;
59189;SDS011;50749;51.636;4.948;2023-11-19T12:48:20;8.00;;;2.15;;
59189;SDS011;50749;51.636;4.948;2023-11-19T12:50:56;12.20;;;2.53;;
59189;SDS011;50749;51.636;4.948;2023-11-19T12:53:24;13.27;;;2.80;;
59189;SDS011;50749;51.636;4.948;2023-11-19T12:55:51;11.65;;;2.40;;
59189;SDS011;50749;51.636;4.948;2023-11-19T12:58:30;9.93;;;2.88;;
59189;SDS011;50749;51.636;4.948;2023-11-19T13:01:00;11.40;;;2.67;;
59189;SDS011;50749;51.636;4.948;2023-11-19T13:03:34;17.85;;;2.50;;
59189;SDS011;50749;51.636;4.948;2023-11-19T13:06:01;15.82;;;4.20;;
59189;SDS011;50749;51.636;4.948;2023-11-19T13:09:06;10.68;;;2.30;;
59189;SDS011;50749;51.636;4.948;2023-11-19T13:11:32;16.10;;;3.15;;
59189;SDS011;50749;51.636;4.948;2023-11-19T13:16:26;29.08;;;3.67;;
59189;SDS011;50749;51.636;4.948;2023-11-19T13:18:53;13.23;;;2.55;;
59189;SDS011;50749;51.636;4.948;2023-11-19T13:21:18;11.82;;;2.17;;
59189;SDS011;50749;51.636;4.948;2023-11-19T13:23:44;10.10;;;2.50;;
59189;SDS011;50749;51.636;4.948;2023-11-19T13:26:13;11.23;;;2.03;;
59189;SDS011;50749;51.636;4.948;2023-11-19T13:28:38;9.73;;;2.13;;
59189;SDS011;50749;51.636;4.948;2023-11-19T13:31:04;8.90;;;2.25;;
59189;SDS011;50749;51.636;4.948;2023-11-19T13:33:30;13.55;;;2.47;;
59189;SDS011;50749;51.636;4.948;2023-11-19T13:35:57;11.93;;;2.35;;
59189;SDS011;50749;51.636;4.948;2023-11-19T13:38:22;11.85;;;2.63;;
59189;SDS011;50749;51.636;4.948;2023-11-19T13:40:49;9.43;;;1.85;;
59189;SDS011;50749;51.636;4.948;2023-11-19T13:43:16;12.50;;;2.42;;
59189;SDS011;50749;51.636;4.948;2023-11-19T13:45:42;8.27;;;2.63;;
59189;SDS011;50749;51.636;4.948;2023-11-19T13:48:08;14.48;;;2.30;;
59189;SDS011;50749;51.636;4.948;2023-11-19T13:50:35;10.77;;;2.35;;
59189;SDS011;50749;51.636;4.948;2023-11-19T13:53:00;10.50;;;2.33;;
59189;SDS011;50749;51.636;4.948;2023-11-19T13:55:26;10.38;;;1.90;;
59189;SDS011;50749;51.636;4.948;2023-11-19T13:57:52;12.93;;;2.17;;
59189;SDS011;50749;51.636;4.948;2023-11-19T14:00:18;10.73;;;2.75;;
59189;SDS011;50749;51.636;4.948;2023-11-19T14:02:47;16.20;;;2.35;;
59189;SDS011;50749;51.636;4.948;2023-11-19T14:05:14;15.75;;;2.35;;
59189;SDS011;50749;51.636;4.948;2023-11-19T14:07:42;10.25;;;2.63;;
59189;SDS011;50749;51.636;4.948;2023-11-19T14:10:09;12.70;;;3.28;;
59189;SDS011;50749;51.636;4.948;2023-11-19T14:12:39;15.68;;;3.38;;
59189;SDS011;50749;51.636;4.948;2023-11-19T14:15:06;12.63;;;2.13;;
59189;SDS011;50749;51.636;4.948;2023-11-19T14:17:33;10.48;;;1.98;;
59189;SDS011;50749;51.636;4.948;2023-11-19T14:19:59;9.43;;;2.03;;
59189;SDS011;50749;51.636;4.948;2023-11-19T14:22:25;10.95;;;2.53;;
59189;SDS011;50749;51.636;4.948;2023-11-19T14:24:51;12.40;;;3.63;;
59189;SDS011;50749;51.636;4.948;2023-11-19T14:27:17;7.75;;;1.95;;
59189;SDS011;50749;51.636;4.948;2023-11-19T14:29:43;16.00;;;3.28;;
59189;SDS011;50749;51.636;4.948;2023-11-19T14:32:10;11.80;;;2.35;;
59189;SDS011;50749;51.636;4.948;2023-11-19T14:34:36;12.35;;;2.42;;
59189;SDS011;50749;51.636;4.948;2023-11-19T14:37:02;11.77;;;2.20;;
59189;SDS011;50749;51.636;4.948;2023-11-19T14:39:28;11.88;;;2.35;;
59189;SDS011;50749;51.636;4.948;2023-11-19T14:41:57;10.55;;;2.63;;
59189;SDS011;50749;51.636;4.948;2023-11-19T14:44:30;10.35;;;2.30;;
59189;SDS011;50749;51.636;4.948;2023-11-19T14:46:55;9.75;;;2.15;;
59189;SDS011;50749;51.636;4.948;2023-11-19T14:49:21;11.57;;;2.08;;
59189;SDS011;50749;51.636;4.948;2023-11-19T14:51:49;11.82;;;2.33;;
59189;SDS011;50749;51.636;4.948;2023-11-19T14:54:15;10.60;;;2.00;;
59189;SDS011;50749;51.636;4.948;2023-11-19T14:56:41;14.88;;;2.65;;
59189;SDS011;50749;51.636;4.948;2023-11-19T14:59:07;13.30;;;2.92;;
59189;SDS011;50749;51.636;4.948;2023-11-19T15:01:33;10.93;;;2.15;;
59189;SDS011;50749;51.636;4.948;2023-11-19T15:03:58;12.38;;;2.58;;
59189;SDS011;50749;51.636;4.948;2023-11-19T15:06:24;11.27;;;1.65;;
59189;SDS011;50749;51.636;4.948;2023-11-19T15:08:53;11.98;;;1.75;;
59189;SDS011;50749;51.636;4.948;2023-11-19T15:11:20;11.38;;;1.92;;
59189;SDS011;50749;51.636;4.948;2023-11-19T15:13:46;12.43;;;2.83;;
59189;SDS011;50749;51.636;4.948;2023-11-19T15:16:12;13.40;;;2.72;;